Stations météo

réclame
Mon MeteoGroup
Stabroek, Belgique (6438): Température de l'air & dewpoint: 19.02.2018 22:00:00 - 25.02.2018 22:00:00 (CET)Stabroek, Belgique (6438): Vitesse du vent & gusts: 19.02.2018 22:00:00 - 25.02.2018 22:00:00 (CET)Stabroek, Belgique (6438): Direction du vent: 19.02.2018 22:00:00 - 25.02.2018 22:00:00 (CET)Stabroek, Belgique (6438): reduced air pressure: 19.02.2018 22:00:00 - 25.02.2018 22:00:00 (CET)Stabroek, Belgique (6438): Ensoleillement: 19.02.2018 22:00:00 - 25.02.2018 22:00:00 (CET)Stabroek, Belgique (6438): Quantités de précipitations: 19.02.2018 22:00:00 - 25.02.2018 22:00:00 (CET)
Date & Time tt [°C] td [°C] ff [km/h] ff [knt] fx [km/h] fx [knt] dd ppp [hPa] sd [min] rr [mm]
25.02.2018 22:00:00 -2,5 -9,8 14 8 - - NE 1029,9 - -
25.02.2018 21:00:00 -2,1 -10,2 16 9 34 18 NE 1029,7 0 0,0
25.02.2018 20:00:00 -1,5 -10,7 22 12 39 21 NE 1029,5 0 0,0
25.02.2018 19:00:00 -1,3 -10,7 18 10 32 17 NE 1029,3 18 0,0
25.02.2018 18:00:00 0,0 -12,5 17 9 35 19 NE 1029,1 60 0,0
25.02.2018 17:00:00 0,8 -13,5 20 11 36 19 NNE 1028,7 60 0,0
25.02.2018 16:00:00 1,2 -12,9 20 11 37 20 NE 1028,9 60 0,0
25.02.2018 15:00:00 1,2 -12,4 20 11 37 20 NE 1029,1 60 0,0
25.02.2018 14:00:00 1,0 -12,7 19 10 35 19 ENE 1029,4 60 0,0
25.02.2018 13:00:00 0,6 -12,1 22 12 34 19 ENE 1029,9 60 0,0
25.02.2018 12:00:00 -0,1 -11,6 21 12 37 20 ENE 1030,1 60 0,0
25.02.2018 11:00:00 -0,9 -11,3 20 11 38 20 ENE 1030,0 60 0,0
25.02.2018 10:00:00 -2,2 -10,9 22 12 - - ENE 1029,9 60 0,0
25.02.2018 09:00:00 -3,4 -10,2 17 9 29 16 ENE 1029,7 56 0,0
25.02.2018 08:00:00 -4,1 -9,9 16 9 27 15 ENE 1029,2 0 0,0
25.02.2018 07:00:00 -3,8 -9,8 18 10 31 17 ENE 1028,7 0 0,0
25.02.2018 06:00:00 -3,4 -9,6 16 9 33 18 NE 1028,5 0 0,0
25.02.2018 05:00:00 -3,0 -9,6 15 8 29 16 ENE 1027,8 0 0,0
25.02.2018 04:00:00 -2,6 -9,3 16 9 36 20 ENE 1027,4 0 0,0
25.02.2018 03:00:00 -2,3 -8,9 17 9 34 18 ENE 1027,2 0 0,0
25.02.2018 02:00:00 -1,8 -8,5 19 11 32 17 ENE 1027,2 0 0,0
25.02.2018 01:00:00 -1,5 -8,2 22 12 - - ENE 1027,1 0 0,0
25.02.2018 00:00:00 -1,1 -7,7 20 11 32 17 NE 1027,1 0 0,0
24.02.2018 23:00:00 -0,7 -7,1 19 11 36 19 ENE 1026,9 0 0,0
24.02.2018 22:00:00 -0,3 -6,7 21 12 - - ENE 1026,4 0 0,0
24.02.2018 21:00:00 0,0 -6,5 23 13 39 21 ENE 1026,1 0 0,0
24.02.2018 20:00:00 0,5 -5,7 24 13 44 24 ENE 1025,7 0 0,0
24.02.2018 19:00:00 0,9 -4,9 22 12 41 22 ENE 1025,1 0 0,0
24.02.2018 18:00:00 1,7 -5,3 25 13 44 24 ENE 1024,4 26 0,0
24.02.2018 17:00:00 2,7 -6,1 26 14 49 27 NE 1024,2 60 0,0
24.02.2018 16:00:00 4,0 -6,7 26 14 46 25 NE 1023,8 60 0,0
24.02.2018 15:00:00 4,9 -7,6 25 14 44 24 NE 1023,8 60 0,0
24.02.2018 14:00:00 4,3 -8,4 29 16 46 25 ENE 1023,8 60 0,0
24.02.2018 13:00:00 3,6 -9,4 29 16 45 24 ENE 1024,0 60 0,0
24.02.2018 12:00:00 3,1 -9,0 24 13 42 23 ENE 1024,3 60 0,0
24.02.2018 11:00:00 1,4 -10,3 26 14 44 24 ENE 1024,1 60 0,0
24.02.2018 10:00:00 -0,7 -10,0 21 11 38 20 ENE 1023,8 60 0,0
24.02.2018 09:00:00 -2,6 -9,6 20 11 33 18 ENE 1023,8 55 0,0
24.02.2018 08:00:00 -3,7 -9,4 17 9 29 15 ENE 1023,3 0 0,0
24.02.2018 07:00:00 -3,8 -9,0 18 10 31 17 ENE 1022,8 0 0,0
24.02.2018 06:00:00 -3,4 -9,1 18 10 32 17 ENE 1022,5 0 0,0
24.02.2018 05:00:00 -3,3 -8,7 16 8 29 16 ENE 1022,4 0 0,0
24.02.2018 04:00:00 -2,8 -8,1 17 9 31 17 ENE 1022,2 0 0,0
24.02.2018 03:00:00 -2,7 -7,3 16 9 31 17 ENE 1022,2 0 0,0
24.02.2018 02:00:00 -2,3 -6,9 16 9 31 17 NE 1021,9 0 0,0
24.02.2018 01:00:00 -2,0 -6,5 18 10 29 16 ENE 1021,9 0 0,0
24.02.2018 00:00:00 -1,4 -6,0 16 9 32 17 ENE 1021,7 0 0,0
23.02.2018 23:00:00 -0,9 -5,9 19 10 32 17 ENE 1021,5 0 0,0
23.02.2018 22:00:00 -0,3 -6,0 22 12 35 19 NE 1021,4 0 0,0
23.02.2018 21:00:00 -0,1 -6,0 16 9 30 16 NE 1021,3 0 0,0
23.02.2018 20:00:00 0,3 -6,2 14 8 29 16 ENE 1021,3 0 0,0
23.02.2018 19:00:00 1,1 -6,4 11 6 27 15 ENE 1021,3 9 0,0
23.02.2018 18:00:00 1,9 -6,3 16 9 36 19 ENE 1021,0 60 0,0
23.02.2018 17:00:00 2,7 -6,1 22 12 38 20 NE 1020,8 60 0,0
23.02.2018 16:00:00 3,0 -5,8 25 13 42 23 NE 1021,0 60 0,0
23.02.2018 15:00:00 3,2 -5,1 22 12 40 22 ENE 1021,4 60 0,0
23.02.2018 14:00:00 2,7 -5,0 24 13 40 22 ENE 1021,9 60 0,0
23.02.2018 13:00:00 2,3 -5,3 25 14 41 22 ENE 1022,3 60 0,0
23.02.2018 12:00:00 1,6 -5,7 27 15 46 25 NE 1022,8 60 0,0
23.02.2018 11:00:00 0,9 -5,0 28 15 46 25 NE 1023,0 60 0,0
23.02.2018 10:00:00 -0,4 -2,4 16 9 23 12 NE 1023,5 60 0,0
23.02.2018 09:00:00 -1,9 -3,3 10 6 19 10 NE 1023,2 45 0,0
23.02.2018 08:00:00 -2,5 -3,8 12 6 20 11 NE 1023,2 0 0,0
23.02.2018 07:00:00 -2,6 -3,9 11 6 16 9 NE 1023,0 0 0,0
23.02.2018 06:00:00 -2,4 -3,8 11 6 20 11 NE 1022,9 0 0,0
23.02.2018 05:00:00 -2,2 -3,7 13 7 21 11 NE 1022,9 0 0,0
23.02.2018 04:00:00 -2,1 -3,4 12 7 19 10 NNE 1023,2 0 0,0
23.02.2018 03:00:00 -1,9 -3,3 13 7 20 11 NE 1023,4 0 0,0
23.02.2018 02:00:00 -1,6 -3,2 13 7 22 12 NE 1023,5 0 0,0
23.02.2018 01:00:00 -0,9 -4,0 11 6 31 17 NE 1023,8 0 0,0
23.02.2018 00:00:00 -0,5 -4,1 16 8 27 14 NE 1023,7 0 0,0
22.02.2018 23:00:00 -0,1 -3,7 18 10 29 16 NE 1023,8 0 0,0
22.02.2018 22:00:00 0,2 -3,2 17 9 30 16 NE 1023,5 0 0,0
22.02.2018 21:00:00 0,8 -3,3 18 10 31 17 NE 1023,4 0 0,0
22.02.2018 20:00:00 1,5 -4,7 16 9 31 17 NNE 1023,4 0 0,0
22.02.2018 19:00:00 2,3 -4,8 22 12 39 21 NE 1023,1 8 0,0
22.02.2018 18:00:00 3,4 -4,1 21 12 37 20 NE 1022,8 60 0,0
22.02.2018 17:00:00 4,3 -4,1 24 13 37 20 NNE 1022,8 60 0,0
22.02.2018 16:00:00 4,9 -4,6 23 13 38 21 NE 1022,9 60 0,0
22.02.2018 15:00:00 4,9 -4,6 26 14 41 22 ENE 1023,5 60 0,0
22.02.2018 14:00:00 4,3 -4,3 22 12 40 22 ENE 1024,3 60 0,0
22.02.2018 13:00:00 4,2 -4,0 18 10 34 18 ENE 1024,7 60 0,0
22.02.2018 12:00:00 3,0 -3,7 20 11 34 19 ENE 1025,1 60 0,0
22.02.2018 11:00:00 1,7 -3,4 18 10 27 15 ENE 1025,1 60 0,0
22.02.2018 10:00:00 -0,2 -3,7 18 10 27 14 NE 1025,2 60 0,0
22.02.2018 09:00:00 -1,9 -4,2 13 7 21 12 NE 1025,1 47 0,0
22.02.2018 08:00:00 -2,9 -4,7 10 5 20 11 NE 1024,9 0 0,0
22.02.2018 07:00:00 -2,4 -4,5 14 8 23 12 NE 1024,5 0 0,0
22.02.2018 06:00:00 -2,5 -4,4 11 6 18 10 NNE 1024,4 0 0,0
22.02.2018 05:00:00 -2,3 -4,2 11 6 19 10 NNE 1024,1 0 0,0
22.02.2018 04:00:00 -1,9 -4,0 10 5 19 10 NNE 1024,4 0 0,0
22.02.2018 03:00:00 -1,7 -3,8 10 6 16 8 NNE 1024,7 0 0,0
22.02.2018 02:00:00 -1,3 -3,6 11 6 18 10 NNE 1025,0 0 0,0
22.02.2018 01:00:00 -1,5 -3,5 7 4 15 8 NNE 1025,3 0 0,0
22.02.2018 00:00:00 -1,0 -3,1 9 5 14 8 NNE 1025,5 0 0,0
21.02.2018 23:00:00 -0,7 -2,6 9 5 15 8 NNE 1025,7 0 0,0
21.02.2018 22:00:00 -0,2 -2,1 8 5 18 10 N 1025,7 0 0,0
21.02.2018 21:00:00 0,6 -1,7 11 6 19 10 N 1025,7 0 0,0
21.02.2018 20:00:00 1,3 -1,5 10 5 18 10 N 1025,5 0 0,0
21.02.2018 19:00:00 2,2 -2,0 7 4 16 9 N 1025,4 0 0,0
21.02.2018 18:00:00 3,5 -2,0 11 6 23 13 N 1025,1 44 0,0
21.02.2018 17:00:00 4,4 -2,3 16 9 24 13 NNE 1024,9 60 0,0
21.02.2018 16:00:00 4,8 -2,0 12 7 26 14 NNE 1025,1 60 0,0
21.02.2018 15:00:00 4,8 -2,4 16 9 26 14 NNE 1025,8 60 0,0
21.02.2018 14:00:00 - - - - - - - - - -
21.02.2018 13:00:00 3,9 -2,1 14 8 - - NNE 1026,9 - -
21.02.2018 12:00:00 3,3 -1,3 11 6 22 12 NNE 1027,3 - -
21.02.2018 11:00:00 1,5 -1,7 7 4 14 8 NNE 1027,1 - -
21.02.2018 10:00:00 -0,6 -2,1 10 6 16 9 NNE 1026,9 60 0,0
21.02.2018 09:00:00 -1,9 -2,6 8 4 12 6 N 1026,6 26 0,0
21.02.2018 08:00:00 -2,3 -2,9 6 3 14 8 NNE 1026,4 0 0,0
21.02.2018 07:00:00 -2,1 -3,0 7 4 11 6 N 1026,3 0 0,0
21.02.2018 06:00:00 -1,7 -2,9 7 4 14 8 N 1026,0 0 0,0
21.02.2018 05:00:00 -1,7 -2,6 8 5 14 7 NNE 1025,5 0 0,0
21.02.2018 04:00:00 -1,4 -2,4 8 5 13 7 N 1025,5 0 0,0
21.02.2018 03:00:00 -0,8 -2,0 7 4 14 8 N 1025,1 0 0,0
21.02.2018 02:00:00 -0,4 -1,8 11 6 18 10 NE 1024,7 0 0,0
21.02.2018 01:00:00 -0,3 -1,6 11 6 15 8 NNE 1024,7 0 0,0
21.02.2018 00:00:00 0,3 -1,3 8 4 13 7 N 1024,4 0 0,0
20.02.2018 23:00:00 0,9 -0,7 7 4 13 7 N 1023,5 0 0,0
20.02.2018 22:00:00 1,6 -0,1 9 5 13 7 N 1023,0 0 0,0
20.02.2018 21:00:00 2,2 -0,4 9 5 15 8 N 1022,2 0 0,0
20.02.2018 20:00:00 3,3 -0,5 8 4 14 7 NNE 1021,6 0 0,0
20.02.2018 19:00:00 3,5 -0,3 7 4 12 6 NNE 1020,9 0 0,0
20.02.2018 18:00:00 4,2 -0,3 8 4 15 8 NNE 1020,2 0 0,0
20.02.2018 17:00:00 4,5 -0,4 8 4 14 8 NE 1019,7 0 0,0
20.02.2018 16:00:00 4,8 -0,7 9 5 15 8 NNE 1019,5 0 0,0
20.02.2018 15:00:00 5,2 -1,3 7 4 13 7 NNE 1019,4 0 0,0
20.02.2018 14:00:00 5,3 -0,4 5 3 8 5 NE 1019,6 0 0,0
20.02.2018 13:00:00 4,9 -0,6 7 4 10 6 ENE 1019,7 36 0,0
20.02.2018 12:00:00 3,9 0,6 4 2 10 5 E 1019,7 19 0,0
20.02.2018 11:00:00 2,6 0,0 4 2 8 5 NE 1019,8 0 0,0
20.02.2018 10:00:00 1,7 0,1 5 3 10 5 NNE 1019,7 0 0,0
20.02.2018 09:00:00 0,6 -0,4 4 2 8 4 NE 1019,3 0 0,0
20.02.2018 08:00:00 0,6 -0,3 4 2 5 3 N 1019,2 0 0,0
20.02.2018 07:00:00 0,4 -0,1 4 2 10 6 E 1018,5 0 0,0
20.02.2018 06:00:00 1,0 0,3 4 2 6 3 NE 1018,9 0 0,0
20.02.2018 05:00:00 1,3 0,7 0 0 11 6 N 1018,6 0 0,0
20.02.2018 04:00:00 2,1 1,3 8 4 - - NE 1018,3 0 0,0
20.02.2018 03:00:00 2,6 1,9 4 2 8 5 NE 1018,3 0 0,0
20.02.2018 02:00:00 2,9 2,2 4 2 7 4 NE 1018,3 0 0,0
20.02.2018 01:00:00 2,7 2,0 4 2 8 4 ENE 1018,3 0 0,0
20.02.2018 00:00:00 2,7 2,4 0 0 7 4 N 1018,1 0 0,0
19.02.2018 23:00:00 2,7 2,6 5 3 9 5 E 1017,9 0 0,0
19.02.2018 22:00:00 3,2 2,9 6 3 9 5 E 1018,1 0 0,0

tt = Température de l'air
td = dewpoint
ff = Vitesse du vent
fx = gusts
dd = Direction du vent
ppp = reduced air pressure
sd = Ensoleillement
rr = Quantités de précipitations

stations d'obs. à proximité